Time;durP1;ratioP1;P1;durP2;ratioP2;P2;SDS_P1;SDS_P2;PMS_P1;PMS_P2;Temp;Humidity;BMP_temperature;BMP_pressure;BME280_temperature;BME280_humidity;BME280_pressure;Samples;Min_cycle;Max_cycle;Signal;HPM_P1;HPM_P2
2021/11/18 00:00:34;;;;;;;3.40;2.10;;;8.30;99.90;;;;;;6146782;23;20616;-66
2021/11/18 00:03:10;;;;;;;5.80;2.13;;;8.30;99.90;;;;;;6144818;23;20679;-67
2021/11/18 00:05:36;;;;;;;8.03;2.37;;;8.20;99.90;;;;;;6142767;23;21085;-67
2021/11/18 00:08:13;;;;;;;5.83;2.40;;;8.20;99.90;;;;;;6144745;23;20537;-67
2021/11/18 00:10:44;;;;;;;6.63;2.57;;;8.20;99.90;;;;;;6143474;23;20659;-66
2021/11/18 00:13:16;;;;;;;5.20;2.30;;;8.20;99.90;;;;;;6143346;23;21110;-67
2021/11/18 00:15:53;;;;;;;4.20;2.30;;;8.20;99.90;;;;;;6147098;23;20509;-67
2021/11/18 00:18:24;;;;;;;4.50;2.57;;;8.20;99.90;;;;;;6145448;23;20548;-66
2021/11/18 00:21:12;;;;;;;7.47;2.60;;;8.20;99.90;;;;;;6145405;23;20596;-66
2021/11/18 00:23:49;;;;;;;5.10;2.63;;;8.10;99.90;;;;;;6145572;23;20604;-67
2021/11/18 00:26:42;;;;;;;10.37;2.87;;;8.10;99.90;;;;;;6146368;23;20863;-66
2021/11/18 00:29:17;;;;;;;5.57;2.50;;;8.10;99.90;;;;;;6122654;23;20636;-66
2021/11/18 00:31:45;;;;;;;6.03;2.97;;;8.10;99.90;;;;;;6143165;23;20648;-68
2021/11/18 00:34:11;;;;;;;6.00;2.50;;;8.10;99.90;;;;;;6144645;23;20585;-66
2021/11/18 00:36:47;;;;;;;8.70;2.90;;;8.10;99.90;;;;;;6145920;23;20612;-66
2021/11/18 00:39:15;;;;;;;6.73;2.80;;;8.10;99.90;;;;;;6145273;23;20257;-66
2021/11/18 00:41:43;;;;;;;5.83;2.53;;;8.10;99.90;;;;;;6140836;23;20669;-66
2021/11/18 00:44:19;;;;;;;6.83;2.43;;;8.10;99.90;;;;;;6143822;23;20695;-67
2021/11/18 00:46:47;;;;;;;11.00;2.60;;;8.10;99.90;;;;;;6147023;23;21169;-66
2021/11/18 00:49:18;;;;;;;7.40;2.47;;;8.10;99.90;;;;;;6147001;23;20703;-66
2021/11/18 00:51:46;;;;;;;6.83;2.70;;;8.10;99.90;;;;;;6145273;23;20584;-67
2021/11/18 00:54:11;;;;;;;5.60;2.70;;;8.10;99.90;;;;;;6144743;23;20526;-67
2021/11/18 00:56:39;;;;;;;7.03;2.43;;;8.10;99.90;;;;;;6144207;23;20551;-66
2021/11/18 00:59:05;;;;;;;14.40;2.90;;;8.10;99.90;;;;;;6145416;23;20224;-68
2021/11/18 01:01:53;;;;;;;;;;;;;;;;;;;;;
2021/11/18 01:04:29;;;;;;;5.13;2.20;;;8.20;99.90;;;;;;6146578;23;20539;-66
2021/11/18 01:07:09;;;;;;;5.97;2.53;;;8.00;99.90;;;;;;6149066;23;21023;-67
2021/11/18 01:09:46;;;;;;;7.90;2.77;;;8.00;99.90;;;;;;6149938;23;20670;-67
2021/11/18 01:12:29;;;;;;;8.30;2.60;;;8.00;99.90;;;;;;6146879;23;20675;-67
2021/11/18 01:15:07;;;;;;;7.10;2.90;;;8.00;99.90;;;;;;6148508;23;20630;-67
2021/11/18 01:51:53;;;;;;;11.00;3.00;;;7.70;99.90;;;;;;6143100;23;20546;-66
2021/11/18 01:54:23;;;;;;;10.80;3.40;;;7.70;99.90;;;;;;6146701;23;20635;-66
2021/11/18 01:57:06;;;;;;;12.07;2.70;;;7.70;99.90;;;;;;6148420;23;21009;-67
2021/11/18 01:59:53;;;;;;;11.00;3.53;;;7.80;99.90;;;;;;6150260;23;20623;-66
2021/11/18 02:02:22;;;;;;;9.40;2.80;;;7.70;99.90;;;;;;6147091;23;21024;-67
2021/11/18 02:05:07;;;;;;;9.90;2.63;;;7.70;99.90;;;;;;6148437;23;20580;-67
2021/11/18 02:07:33;;;;;;;8.17;3.00;;;7.70;99.90;;;;;;6150686;23;20589;-66
2021/11/18 02:09:59;;;;;;;9.23;2.97;;;7.70;99.90;;;;;;6150211;23;20992;-66
2021/11/18 02:12:29;;;;;;;14.37;3.77;;;7.70;99.90;;;;;;6149954;23;20329;-66
2021/11/18 02:15:24;;;;;;;8.03;2.67;;;7.70;99.90;;;;;;6147982;23;20149;-67
2021/11/18 02:17:53;;;;;;;9.60;3.03;;;7.70;99.90;;;;;;6147758;23;20580;-67
2021/11/18 02:20:24;;;;;;;8.67;2.57;;;7.70;99.90;;;;;;6148193;23;20609;-66
2021/11/18 02:23:00;;;;;;;10.07;2.90;;;7.70;99.90;;;;;;6150937;23;21161;-67
2021/11/18 02:25:32;;;;;;;8.47;2.77;;;7.70;99.90;;;;;;6150958;23;20494;-67
2021/11/18 02:27:58;;;;;;;7.90;2.80;;;7.70;99.90;;;;;;6149942;23;20581;-66
2021/11/18 02:30:33;;;;;;;6.13;2.83;;;7.80;99.90;;;;;;6148991;23;20593;-66
2021/11/18 02:33:18;;;;;;;8.03;2.60;;;7.60;99.90;;;;;;6150543;23;20679;-66
2021/11/18 02:36:03;;;;;;;6.80;2.80;;;7.80;99.90;;;;;;6150125;23;20536;-66
2021/11/18 02:38:28;;;;;;;12.37;3.50;;;7.80;99.90;;;;;;6150302;23;20509;-66
2021/11/18 02:41:06;;;;;;;6.43;2.80;;;7.80;99.90;;;;;;6149203;23;20537;-67
2021/11/18 03:51:58;;;;;;;8.60;2.90;;;8.10;99.90;;;;;;6145991;23;20715;-67
2021/11/18 03:54:45;;;;;;;11.70;4.50;;;8.20;99.90;;;;;;6145151;23;20573;-67
2021/11/18 03:57:18;;;;;;;8.57;3.43;;;8.20;99.90;;;;;;6148423;23;20513;-67
2021/11/18 04:12:56;;;;;;;9.50;3.30;;;8.30;99.90;;;;;;6112298;23;20627;-66
2021/11/18 04:15:28;;;;;;;7.93;3.17;;;8.30;99.90;;;;;;6149523;23;20575;-66
2021/11/18 04:18:11;;;;;;;;;;;;;;;;;;;;;
2021/11/18 05:56:06;;;;;;;17.20;5.50;;;8.60;99.90;;;;;;6125821;23;20625;-71
2021/11/18 05:58:34;;;;;;;7.10;4.20;;;8.70;99.90;;;;;;6144757;23;20506;-63
2021/11/18 06:01:00;;;;;;;13.20;5.73;;;8.70;99.90;;;;;;6146796;23;20529;-63
2021/11/18 06:03:28;;;;;;;10.70;5.10;;;8.80;99.90;;;;;;6149048;23;20517;-63
2021/11/18 06:06:02;;;;;;;17.70;5.90;;;8.80;99.90;;;;;;6147354;23;21074;-70
2021/11/18 06:08:28;;;;;;;13.90;4.93;;;8.90;99.90;;;;;;6148790;23;20755;-69
2021/11/18 06:11:05;;;;;;;9.93;4.73;;;8.90;99.90;;;;;;6143984;23;20569;-68
2021/11/18 06:13:33;;;;;;;14.37;5.00;;;8.90;99.90;;;;;;6146196;23;20188;-68
2021/11/18 06:15:59;;;;;;;12.03;4.90;;;8.90;99.90;;;;;;6147654;23;20566;-69
2021/11/18 06:18:25;;;;;;;11.50;5.30;;;8.90;99.90;;;;;;6146121;23;20624;-69
2021/11/18 06:20:53;;;;;;;14.97;5.63;;;9.00;99.90;;;;;;6151728;23;20541;-60
2021/11/18 06:23:22;;;;;;;13.57;5.07;;;9.00;99.90;;;;;;6131101;23;20208;-60
2021/11/18 06:25:53;;;;;;;12.30;5.30;;;9.00;99.90;;;;;;6152605;23;20632;-60
2021/11/18 06:28:28;;;;;;;21.30;5.80;;;9.10;99.90;;;;;;6152350;23;20584;-60
2021/11/18 06:31:10;;;;;;;14.57;6.60;;;9.10;99.90;;;;;;6153249;23;21092;-60
2021/11/18 06:33:43;;;;;;;11.40;5.20;;;9.10;99.90;;;;;;6151762;23;20579;-61
2021/11/18 06:36:12;;;;;;;14.50;5.30;;;9.20;99.90;;;;;;6149476;23;21014;-62
2021/11/18 06:38:41;;;;;;;13.23;5.43;;;9.20;99.90;;;;;;6150087;23;20647;-70
2021/11/18 06:41:16;;;;;;;15.57;5.17;;;9.30;99.90;;;;;;6147850;23;20557;-70
2021/11/18 06:43:50;;;;;;;13.90;5.70;;;9.30;99.90;;;;;;6152251;23;20527;-68
2021/11/18 06:46:18;;;;;;;15.07;4.60;;;9.30;99.90;;;;;;6150712;23;20696;-70
2021/11/18 06:48:44;;;;;;;11.00;5.20;;;9.40;99.90;;;;;;6151011;23;20671;-72
2021/11/18 06:51:18;;;;;;;17.90;5.70;;;9.40;99.90;;;;;;6138352;23;20565;-70
2021/11/18 06:53:45;;;;;;;12.60;5.00;;;9.40;99.90;;;;;;6150750;23;20188;-70
2021/11/18 06:56:21;;;;;;;12.97;5.40;;;9.40;99.90;;;;;;6151241;23;20539;-70
2021/11/18 06:58:48;;;;;;;16.30;5.40;;;9.40;99.90;;;;;;6148346;23;20647;-68
2021/11/18 07:01:16;;;;;;;11.13;5.30;;;9.40;99.90;;;;;;6151329;23;20536;-68
2021/11/18 07:03:44;;;;;;;13.23;5.43;;;9.30;99.90;;;;;;6150055;23;20957;-68
2021/11/18 07:06:12;;;;;;;14.90;5.00;;;9.40;99.90;;;;;;6152756;23;20534;-70
2021/11/18 07:08:43;;;;;;;11.60;5.50;;;9.40;99.90;;;;;;6149751;23;21175;-70
2021/11/18 07:11:10;;;;;;;11.93;5.40;;;9.40;99.90;;;;;;6149755;23;21104;-70
2021/11/18 07:13:35;;;;;;;12.43;4.90;;;9.30;99.90;;;;;;6148895;23;20569;-69
2021/11/18 07:16:05;;;;;;;13.40;5.60;;;9.30;99.90;;;;;;6150790;23;20544;-68
2021/11/18 07:18:34;;;;;;;11.50;5.00;;;9.30;99.90;;;;;;6150550;23;20289;-69
2021/11/18 07:21:00;;;;;;;18.33;6.17;;;9.30;99.90;;;;;;6142274;23;20541;-68
2021/11/18 07:23:29;;;;;;;13.80;6.03;;;9.30;99.90;;;;;;6148091;23;20549;-68
2021/11/18 07:26:19;;;;;;;13.07;6.23;;;9.40;99.90;;;;;;6151282;23;20544;-69
2021/11/18 07:28:47;;;;;;;14.47;6.53;;;9.30;99.90;;;;;;6063653;23;20615;-68
2021/11/18 07:31:13;;;;;;;18.23;5.90;;;9.30;99.90;;;;;;6088700;23;20547;-68
2021/11/18 07:33:42;;;;;;;18.43;7.03;;;9.30;99.90;;;;;;6088904;23;20630;-68
2021/11/18 07:36:18;;;;;;;13.10;5.60;;;9.30;99.90;;;;;;6090071;23;20593;-69
2021/11/18 07:38:46;;;;;;;16.70;5.80;;;9.30;99.90;;;;;;6063894;23;20589;-68
2021/11/18 07:41:14;;;;;;;16.37;5.47;;;9.40;99.90;;;;;;6089048;23;21049;-68
2021/11/18 07:43:44;;;;;;;17.50;6.80;;;9.40;99.90;;;;;;6066512;23;20948;-69
2021/11/18 07:46:15;;;;;;;9.53;5.47;;;9.40;99.90;;;;;;6065291;23;20682;-69
2021/11/18 07:48:45;;;;;;;16.40;5.57;;;9.40;99.90;;;;;;6089026;23;20990;-68
2021/11/18 07:51:20;;;;;;;16.63;6.80;;;9.40;99.90;;;;;;6064699;23;20579;-69
2021/11/18 07:53:50;;;;;;;11.03;5.40;;;9.40;99.90;;;;;;6088981;23;20546;-69
2021/11/18 07:56:18;;;;;;;10.67;5.90;;;9.40;99.90;;;;;;6088866;23;20937;-69
2021/11/18 07:58:44;;;;;;;14.83;6.03;;;9.30;99.90;;;;;;6063957;23;20582;-70
2021/11/18 08:01:10;;;;;;;14.53;5.90;;;9.40;99.90;;;;;;6088312;23;20566;-70
2021/11/18 08:03:36;;;;;;;9.20;5.20;;;9.40;99.90;;;;;;6088489;23;20177;-69
2021/11/18 08:06:16;;;;;;;16.73;6.60;;;9.40;99.90;;;;;;6132543;23;20898;-68
2021/11/18 08:08:48;;;;;;;13.03;5.73;;;9.50;99.90;;;;;;6150504;23;20639;-69
2021/11/18 08:11:18;;;;;;;15.60;5.63;;;9.40;99.90;;;;;;6152297;23;20494;-69
2021/11/18 08:13:45;;;;;;;9.33;5.87;;;9.40;99.90;;;;;;6152455;23;20517;-69
2021/11/18 08:16:27;;;;;;;16.40;6.20;;;9.40;99.90;;;;;;6151906;23;21112;-68
2021/11/18 08:18:53;;;;;;;14.73;6.83;;;9.50;99.90;;;;;;6152182;23;20496;-69
2021/11/18 08:21:23;;;;;;;10.53;6.53;;;9.60;99.90;;;;;;6151501;23;20991;-71
2021/11/18 08:23:52;;;;;;;15.13;6.83;;;9.60;99.90;;;;;;6151598;23;20646;-68
2021/11/18 08:26:26;;;;;;;13.30;6.40;;;9.70;99.90;;;;;;6176446;23;20973;-69
2021/11/18 08:28:55;;;;;;;21.83;7.00;;;9.70;99.90;;;;;;6152758;23;21139;-68
2021/11/18 08:31:24;;;;;;;17.17;7.43;;;9.70;99.90;;;;;;6150119;23;20628;-69
2021/11/18 08:33:53;;;;;;;17.77;6.93;;;9.70;99.90;;;;;;6154073;23;20616;-70
2021/11/18 08:36:30;;;;;;;14.60;6.70;;;9.70;99.90;;;;;;6153202;23;20632;-69
2021/11/18 08:38:56;;;;;;;12.97;6.63;;;9.80;99.90;;;;;;6151080;23;20502;-68
2021/11/18 08:41:24;;;;;;;19.37;7.10;;;9.80;99.90;;;;;;6149624;23;21164;-68
2021/11/18 08:43:53;;;;;;;18.13;7.13;;;9.80;99.90;;;;;;6150624;23;20648;-69
2021/11/18 08:46:21;;;;;;;16.30;7.90;;;9.80;99.90;;;;;;6152179;23;20878;-69
2021/11/18 08:48:50;;;;;;;18.17;6.93;;;9.90;99.90;;;;;;6153095;23;21121;-68
2021/11/18 08:51:25;;;;;;;16.77;6.70;;;9.80;99.90;;;;;;6151865;23;20873;-66
2021/11/18 08:53:53;;;;;;;18.77;7.97;;;9.90;99.90;;;;;;6153303;23;20830;-69
2021/11/18 08:56:23;;;;;;;17.07;8.73;;;9.90;99.90;;;;;;6151168;23;21018;-70
2021/11/18 08:58:58;;;;;;;21.87;9.07;;;9.90;99.90;;;;;;6151504;23;21169;-70
2021/11/18 09:01:43;;;;;;;18.03;7.90;;;9.90;99.90;;;;;;6150939;23;20583;-69
2021/11/18 09:04:17;;;;;;;17.30;8.00;;;10.00;99.90;;;;;;6153219;23;21189;-69
2021/11/18 09:06:50;;;;;;;15.53;8.27;;;10.00;99.90;;;;;;6150830;23;20600;-69
2021/11/18 09:09:21;;;;;;;19.00;8.30;;;9.90;99.90;;;;;;6152297;23;20564;-70
2021/11/18 09:11:48;;;;;;;18.93;8.70;;;9.90;99.90;;;;;;6151846;23;20593;-70
2021/11/18 09:14:22;;;;;;;17.27;8.33;;;10.00;99.90;;;;;;6151957;23;20564;-69
2021/11/18 09:16:51;;;;;;;18.87;8.30;;;10.00;99.90;;;;;;6151484;23;20647;-69
2021/11/18 09:19:21;;;;;;;17.63;7.33;;;10.10;99.90;;;;;;6149162;23;20565;-69
2021/11/18 09:21:49;;;;;;;21.30;8.40;;;10.00;99.90;;;;;;6153753;23;20604;-69
2021/11/18 09:24:41;;;;;;;18.63;8.67;;;10.00;99.90;;;;;;6153035;23;20548;-70
2021/11/18 09:27:29;;;;;;;21.23;9.30;;;10.00;99.90;;;;;;6153970;23;20593;-71
2021/11/18 09:30:01;;;;;;;19.07;9.60;;;10.00;99.90;;;;;;6153337;23;20605;-70
2021/11/18 09:32:29;;;;;;;20.20;9.60;;;10.10;99.90;;;;;;6162955;23;21000;-69
2021/11/18 09:34:56;;;;;;;21.23;9.73;;;10.10;99.90;;;;;;6154839;23;20549;-69
2021/11/18 09:37:25;;;;;;;24.43;9.67;;;10.20;99.90;;;;;;6152075;23;20593;-70
2021/11/18 09:39:56;;;;;;;17.50;9.40;;;10.10;99.90;;;;;;6150766;23;20627;-69
2021/11/18 09:42:31;;;;;;;18.20;8.80;;;10.20;99.90;;;;;;6151953;23;20584;-69
2021/11/18 09:45:28;;;;;;;26.13;9.77;;;10.20;99.90;;;;;;6151702;23;20508;-70
2021/11/18 09:48:10;;;;;;;15.00;9.10;;;10.20;99.90;;;;;;6153257;23;20570;-70
2021/11/18 09:51:00;;;;;;;16.87;9.07;;;10.20;99.90;;;;;;6152301;23;21016;-70
2021/11/18 09:53:31;;;;;;;20.50;10.07;;;10.20;99.90;;;;;;6152396;23;20565;-70
2021/11/18 09:56:20;;;;;;;16.27;9.13;;;10.20;99.90;;;;;;6152872;23;20604;-69
2021/11/18 09:58:57;;;;;;;20.10;9.87;;;10.30;99.90;;;;;;6123611;23;20569;-69
2021/11/18 10:01:42;;;;;;;20.50;9.73;;;10.30;99.90;;;;;;6152083;23;20581;-70
2021/11/18 10:04:51;;;;;;;14.87;9.53;;;10.40;99.90;;;;;;6152568;23;20530;-70
2021/11/18 10:07:58;;;;;;;18.23;9.07;;;10.20;99.90;;;;;;6152012;23;20604;-70
2021/11/18 10:10:46;;;;;;;16.87;9.80;;;10.30;99.90;;;;;;6150526;23;21171;-70
2021/11/18 10:13:23;;;;;;;19.53;10.07;;;10.30;99.90;;;;;;6175558;23;20608;-70
2021/11/18 10:15:57;;;;;;;19.13;10.43;;;10.30;99.90;;;;;;6151893;23;21089;-70
2021/11/18 10:18:40;;;;;;;17.47;9.67;;;10.30;99.90;;;;;;6149427;23;20585;-69
2021/11/18 10:21:36;;;;;;;21.03;10.40;;;10.30;99.90;;;;;;6151881;23;20493;-71
2021/11/18 10:24:16;;;;;;;22.87;9.63;;;10.40;99.90;;;;;;6175042;23;21112;-70
2021/11/18 10:26:47;;;;;;;18.57;10.90;;;10.40;99.90;;;;;;6152614;23;20595;-70
2021/11/18 10:29:23;;;;;;;16.50;10.53;;;10.50;99.90;;;;;;6150851;23;20601;-70
2021/11/18 10:31:55;;;;;;;16.73;10.07;;;10.50;99.90;;;;;;6152056;23;20580;-70
2021/11/18 10:34:24;;;;;;;23.30;11.20;;;10.50;99.90;;;;;;6151160;23;20678;-70
2021/11/18 10:37:17;;;;;;;22.97;11.27;;;10.50;99.90;;;;;;6152219;23;20577;-71
2021/11/18 10:39:48;;;;;;;19.40;9.90;;;10.60;99.90;;;;;;6153050;23;21089;-70
2021/11/18 10:42:50;;;;;;;16.27;8.67;;;10.50;99.90;;;;;;6152915;23;20967;-69
2021/11/18 10:45:37;;;;;;;22.83;9.57;;;10.60;99.90;;;;;;6156339;23;20563;-70
2021/11/18 10:48:28;;;;;;;20.57;9.93;;;10.60;99.90;;;;;;6156644;23;21169;-70
2021/11/18 10:51:13;;;;;;;17.80;8.43;;;10.70;99.90;;;;;;6158385;23;20506;-64
2021/11/18 10:53:56;;;;;;;20.20;9.17;;;10.80;99.90;;;;;;6156426;23;20800;-70
2021/11/18 10:56:29;;;;;;;17.33;8.90;;;10.90;99.90;;;;;;6155897;23;20540;-70
2021/11/18 10:59:11;;;;;;;12.67;8.00;;;11.10;99.90;;;;;;6156462;23;20495;-71
2021/11/18 11:01:43;;;;;;;18.60;8.43;;;11.20;99.90;;;;;;6153285;23;20588;-72
2021/11/18 11:04:18;;;;;;;23.13;9.47;;;11.20;99.90;;;;;;6153847;23;21146;-72
2021/11/18 11:06:43;;;;;;;18.20;8.37;;;11.20;99.90;;;;;;6152822;23;20696;-72
2021/11/18 11:09:30;;;;;;;12.40;7.20;;;11.20;99.90;;;;;;6151286;23;21130;-71
2021/11/18 11:12:23;;;;;;;18.37;8.97;;;11.20;99.90;;;;;;6151458;23;20197;-71
2021/11/18 11:15:08;;;;;;;18.83;8.00;;;11.20;99.90;;;;;;6150350;23;20595;-70
2021/11/18 11:17:52;;;;;;;17.03;7.30;;;11.30;99.90;;;;;;6149820;23;21227;-70
2021/11/18 11:20:31;;;;;;;17.33;8.07;;;11.30;99.90;;;;;;6152893;23;20502;-70
2021/11/18 11:23:18;;;;;;;19.17;7.37;;;11.40;99.90;;;;;;6150001;23;20593;-70
2021/11/18 11:26:11;;;;;;;11.97;7.10;;;11.30;99.90;;;;;;6152589;23;20529;-70
2021/11/18 11:28:49;;;;;;;16.90;7.47;;;11.30;99.90;;;;;;6151079;23;20584;-75
2021/11/18 11:31:29;;;;;;;14.43;6.77;;;11.20;99.90;;;;;;6151568;23;20580;-72
2021/11/18 11:34:41;;;;;;;15.77;6.40;;;11.20;99.90;;;;;;6150736;23;20641;-70
2021/11/18 11:37:28;;;;;;;14.97;7.10;;;11.20;99.90;;;;;;6089705;23;20601;-71
2021/11/18 11:40:23;;;;;;;11.67;6.73;;;11.30;99.90;;;;;;6148039;23;20552;-70
2021/11/18 11:43:13;;;;;;;12.20;6.10;;;11.30;99.90;;;;;;6138898;23;21150;-71
2021/11/18 11:46:11;;;;;;;10.70;6.40;;;11.40;99.90;;;;;;6154812;23;20553;-70
2021/11/18 11:48:54;;;;;;;14.00;6.40;;;11.50;99.90;;;;;;6155071;23;20560;-71
2021/11/18 11:51:58;;;;;;;10.30;6.07;;;11.60;99.90;;;;;;6154780;23;20647;-71
2021/11/18 11:54:48;;;;;;;9.70;6.60;;;11.60;99.90;;;;;;6154123;23;20504;-71
2021/11/18 11:57:25;;;;;;;15.80;5.80;;;11.60;99.90;;;;;;6152290;23;20604;-71
2021/11/18 12:00:25;;;;;;;10.17;5.53;;;11.70;99.90;;;;;;6152006;23;20631;-71
2021/11/18 12:03:02;;;;;;;10.43;5.77;;;11.60;99.90;;;;;;6152533;23;20584;-71
2021/11/18 12:05:41;;;;;;;15.37;6.40;;;11.60;99.90;;;;;;6152041;23;20647;-71
2021/11/18 12:08:53;;;;;;;12.00;6.70;;;11.60;99.90;;;;;;6152500;23;21141;-71
2021/11/18 12:11:24;;;;;;;15.63;5.73;;;11.60;99.90;;;;;;6150363;23;22886;-71
2021/11/18 12:14:09;;;;;;;16.00;6.43;;;11.60;99.90;;;;;;6153460;23;20553;-71
2021/11/18 12:16:48;;;;;;;18.07;6.87;;;11.60;99.90;;;;;;6152684;23;20525;-71
2021/11/18 12:19:43;;;;;;;11.77;5.90;;;11.50;99.90;;;;;;6150769;23;20555;-71
2021/11/18 12:22:42;;;;;;;12.87;6.07;;;11.50;99.90;;;;;;6150392;23;20600;-71
2021/11/18 12:25:15;;;;;;;16.93;6.80;;;11.50;99.90;;;;;;6153610;23;21033;-70
2021/11/18 12:28:05;;;;;;;13.43;6.90;;;11.50;99.90;;;;;;6149966;23;20589;-73
2021/11/18 12:30:32;;;;;;;15.90;6.97;;;11.40;99.90;;;;;;6152364;23;21184;-61
2021/11/18 12:33:17;;;;;;;12.60;7.63;;;11.50;99.90;;;;;;6151796;23;20635;-61
2021/11/18 12:36:07;;;;;;;11.80;5.47;;;11.50;99.90;;;;;;6121066;23;20567;-61
2021/11/18 12:38:47;;;;;;;12.10;5.73;;;11.50;99.90;;;;;;6152662;23;20589;-61
2021/11/18 12:41:36;;;;;;;12.23;5.57;;;11.50;99.90;;;;;;6161034;23;20534;-61
2021/11/18 12:44:47;;;;;;;10.97;5.30;;;11.50;99.90;;;;;;6163061;23;20522;-60
2021/11/18 12:47:43;;;;;;;11.70;5.33;;;11.60;99.90;;;;;;6155748;23;20969;-59
2021/11/18 12:50:34;;;;;;;15.10;6.00;;;11.60;99.90;;;;;;6153918;23;20599;-60
2021/11/18 12:53:11;;;;;;;13.97;5.00;;;11.60;99.90;;;;;;6122519;23;20597;-59
2021/11/18 12:56:05;;;;;;;13.17;5.30;;;11.50;99.90;;;;;;6153458;23;20917;-59
2021/11/18 12:58:49;;;;;;;17.00;5.53;;;11.60;99.90;;;;;;6152159;23;21257;-60
2021/11/18 13:01:40;;;;;;;13.80;5.20;;;11.60;99.90;;;;;;6151215;23;20506;-60
2021/11/18 13:04:28;;;;;;;13.57;5.50;;;11.60;99.90;;;;;;6144109;23;20592;-66
2021/11/18 13:06:58;;;;;;;13.00;5.77;;;11.60;99.90;;;;;;6152648;23;20619;-67
2021/11/18 13:10:07;;;;;;;13.43;5.43;;;11.50;99.90;;;;;;6153794;23;20553;-67
2021/11/18 13:12:40;;;;;;;14.43;6.13;;;11.40;99.90;;;;;;6136773;23;20589;-66
2021/11/18 13:15:13;;;;;;;8.87;5.13;;;11.40;99.90;;;;;;6149363;23;20498;-68
2021/11/18 13:17:50;;;;;;;10.30;5.33;;;11.40;99.90;;;;;;6151500;23;20593;-68
2021/11/18 13:20:40;;;;;;;14.10;5.47;;;11.40;99.90;;;;;;6149021;23;20643;-71
2021/11/18 13:23:24;;;;;;;12.27;5.30;;;11.30;99.90;;;;;;6150852;23;20593;-68
2021/11/18 13:25:56;;;;;;;13.20;6.23;;;11.30;99.90;;;;;;6153643;23;20852;-68
2021/11/18 13:28:48;;;;;;;11.23;4.90;;;11.30;99.90;;;;;;6151906;23;21106;-69
2021/11/18 13:31:24;;;;;;;12.03;5.47;;;11.20;99.90;;;;;;6149549;23;20580;-68
2021/11/18 13:33:54;;;;;;;11.00;6.07;;;11.20;99.90;;;;;;6150456;23;20497;-71
2021/11/18 13:36:19;;;;;;;10.60;5.60;;;11.10;99.90;;;;;;6150801;23;20565;-70
2021/11/18 13:39:08;;;;;;;14.67;5.73;;;11.10;99.90;;;;;;6151027;23;20525;-70
2021/11/18 13:41:47;;;;;;;9.90;5.77;;;11.00;99.90;;;;;;6148209;23;20203;-69
2021/11/18 13:44:34;;;;;;;20.93;5.33;;;11.10;99.90;;;;;;6152023;23;20545;-68
2021/11/18 13:47:28;;;;;;;14.80;5.63;;;11.00;99.90;;;;;;6149614;23;20596;-67
2021/11/18 13:50:00;;;;;;;12.77;5.67;;;10.90;99.90;;;;;;6149766;23;20636;-70
2021/11/18 13:52:29;;;;;;;15.03;5.80;;;10.90;99.90;;;;;;6150599;23;20677;-71
2021/11/18 13:55:01;;;;;;;15.57;6.80;;;10.90;99.90;;;;;;6152288;23;20587;-70
2021/11/18 13:57:41;;;;;;;12.87;6.57;;;10.90;99.90;;;;;;6150868;23;20636;-72
2021/11/18 14:00:19;;;;;;;11.37;5.40;;;10.80;99.90;;;;;;6150462;23;20612;-71
2021/11/18 14:03:16;;;;;;;13.47;6.13;;;10.80;99.90;;;;;;6149546;23;20589;-71
2021/11/18 14:05:53;;;;;;;15.30;6.33;;;10.80;99.90;;;;;;6148585;23;20620;-71
2021/11/18 14:08:26;;;;;;;12.47;5.70;;;10.70;99.90;;;;;;6151610;23;20639;-71
2021/11/18 14:11:11;;;;;;;12.77;5.83;;;10.80;99.90;;;;;;6151288;23;20552;-72
2021/11/18 14:13:46;;;;;;;13.10;5.80;;;10.80;99.90;;;;;;6149659;23;20581;-71
2021/11/18 14:16:34;;;;;;;12.13;5.93;;;10.80;99.90;;;;;;6150936;23;20498;-72
2021/11/18 14:19:02;;;;;;;12.10;5.97;;;10.80;99.90;;;;;;6151915;23;20610;-72
2021/11/18 14:21:52;;;;;;;12.30;5.40;;;10.80;99.90;;;;;;6147138;23;20585;-71
2021/11/18 14:24:46;;;;;;;14.77;6.43;;;10.80;99.90;;;;;;6151115;23;20896;-72
2021/11/18 14:27:24;;;;;;;13.40;5.60;;;10.80;99.90;;;;;;6150058;23;20603;-72
2021/11/18 14:30:05;;;;;;;15.57;6.20;;;10.80;99.90;;;;;;6150992;23;20580;-70
2021/11/18 14:32:41;;;;;;;13.00;6.00;;;10.90;99.90;;;;;;6150281;23;20577;-71
2021/11/18 14:35:28;;;;;;;12.30;5.77;;;10.80;99.90;;;;;;6149722;23;20556;-70
2021/11/18 14:38:03;;;;;;;11.63;5.53;;;10.80;99.90;;;;;;6149984;23;20573;-69
2021/11/18 14:40:44;;;;;;;16.80;5.90;;;10.80;99.90;;;;;;6152858;23;20549;-70
2021/11/18 14:43:28;;;;;;;11.90;6.00;;;10.80;99.90;;;;;;6151442;23;20761;-71
2021/11/18 14:46:15;;;;;;;13.17;6.00;;;10.80;99.90;;;;;;6174949;23;20561;-70
2021/11/18 14:49:04;;;;;;;12.87;5.80;;;10.80;99.90;;;;;;6150608;23;20593;-70
